createdAt,value
2023-03-06T00:00:15.705Z,18
2023-03-06T00:01:28.528Z,17
2023-03-06T00:02:37.314Z,16
2023-03-06T00:03:44.360Z,17
2023-03-06T00:04:51.559Z,16
2023-03-06T00:06:01.139Z,17
2023-03-06T00:07:10.763Z,17
2023-03-06T00:08:17.664Z,18
2023-03-06T00:09:25.718Z,17
2023-03-06T00:10:37.196Z,16
2023-03-06T00:11:47.689Z,17
2023-03-06T00:12:54.848Z,18
2023-03-06T00:14:07.646Z,17
2023-03-06T00:15:17.875Z,18
2023-03-06T00:16:28.613Z,21
2023-03-06T00:17:41.126Z,20
2023-03-06T00:18:48.070Z,21
2023-03-06T00:19:55.964Z,19
2023-03-06T00:21:06.479Z,20
2023-03-06T00:22:14.132Z,20
2023-03-06T00:23:22.610Z,18
2023-03-06T00:24:29.600Z,20
2023-03-06T00:25:36.547Z,21
2023-03-06T00:26:48.545Z,21
2023-03-06T00:27:56.164Z,19
2023-03-06T00:29:03.116Z,20
2023-03-06T00:30:14.856Z,20
2023-03-06T00:31:22.312Z,19
2023-03-06T00:32:29.204Z,19
2023-03-06T00:33:36.323Z,18
2023-03-06T00:34:43.309Z,18
2023-03-06T00:35:54.252Z,18
2023-03-06T00:37:01.273Z,18
2023-03-06T00:38:09.002Z,20
2023-03-06T00:39:16.065Z,19
2023-03-06T00:40:23.068Z,19
2023-03-06T00:41:30.026Z,18
2023-03-06T00:42:37.260Z,19
2023-03-06T00:43:45.056Z,25
2023-03-06T00:44:53.840Z,24
2023-03-06T00:46:00.882Z,25
2023-03-06T00:47:08.197Z,25
2023-03-06T00:48:16.691Z,25
2023-03-06T00:49:23.643Z,25
2023-03-06T00:50:35.891Z,26
2023-03-06T00:51:46.387Z,25
2023-03-06T00:52:56.676Z,24
2023-03-06T00:54:03.775Z,26
2023-03-06T00:55:14.069Z,26
2023-03-06T00:56:21.145Z,26
2023-03-06T00:57:33.866Z,27
2023-03-06T00:58:40.728Z,27
2023-03-06T00:59:47.844Z,27
2023-03-06T01:00:55.724Z,24
2023-03-06T01:02:02.706Z,24
2023-03-06T01:03:10.537Z,23
2023-03-06T01:04:17.458Z,23
2023-03-06T01:05:26.011Z,24
2023-03-06T01:06:33.840Z,23
2023-03-06T01:07:41.771Z,24
2023-03-06T01:08:48.695Z,23
2023-03-06T01:09:56.626Z,22
2023-03-06T01:11:03.596Z,22
2023-03-06T01:12:14.829Z,22
2023-03-06T01:13:23.779Z,23
2023-03-06T01:14:30.776Z,22
2023-03-06T01:15:38.596Z,21
2023-03-06T01:16:46.531Z,23
2023-03-06T01:17:54.304Z,22
2023-03-06T01:19:01.246Z,22
2023-03-06T01:20:08.170Z,22
2023-03-06T01:21:18.005Z,21
2023-03-06T01:22:24.876Z,23
2023-03-06T01:23:33.435Z,24
2023-03-06T01:24:40.554Z,23
2023-03-06T01:25:48.444Z,22
2023-03-06T01:26:55.484Z,23
2023-03-06T01:28:05.378Z,23
2023-03-06T01:29:12.361Z,24
2023-03-06T01:30:19.676Z,23
2023-03-06T01:31:26.730Z,23
2023-03-06T01:32:33.775Z,21
2023-03-06T01:33:41.733Z,22
2023-03-06T01:34:51.349Z,21
2023-03-06T01:36:03.441Z,21
2023-03-06T01:37:10.742Z,21
2023-03-06T01:38:18.402Z,19
2023-03-06T01:39:25.344Z,20
2023-03-06T01:40:35.956Z,20
2023-03-06T01:41:46.697Z,20
2023-03-06T01:42:54.019Z,20
2023-03-06T01:44:02.043Z,21
2023-03-06T01:45:09.041Z,19
2023-03-06T01:46:16.211Z,19
2023-03-06T01:47:33.199Z,18
2023-03-06T01:48:40.187Z,19
2023-03-06T01:49:47.171Z,18
2023-03-06T01:50:55.211Z,16
2023-03-06T01:52:02.231Z,17
2023-03-06T01:53:09.249Z,17
2023-03-06T01:54:16.187Z,16
2023-03-06T01:55:28.509Z,16
2023-03-06T01:56:40.740Z,18
2023-03-06T01:57:48.391Z,18
2023-03-06T01:58:55.429Z,18
2023-03-06T02:00:05.949Z,16
2023-03-06T02:01:13.261Z,17
2023-03-06T02:02:20.193Z,18
2023-03-06T02:03:28.340Z,18
2023-03-06T02:04:36.700Z,17
2023-03-06T02:05:43.920Z,17
2023-03-06T02:06:51.484Z,18
2023-03-06T02:07:58.395Z,16
2023-03-06T02:09:07.226Z,17
2023-03-06T02:10:14.822Z,17
2023-03-06T02:11:21.770Z,16
2023-03-06T02:12:28.803Z,17
2023-03-06T02:13:39.926Z,17
2023-03-06T02:14:47.390Z,16
2023-03-06T02:15:54.334Z,17
2023-03-06T02:17:02.507Z,16
2023-03-06T02:18:09.433Z,16
2023-03-06T02:19:16.441Z,17
2023-03-06T02:20:35.716Z,17
2023-03-06T02:21:44.592Z,15
2023-03-06T02:22:52.895Z,17
2023-03-06T02:23:59.769Z,17
2023-03-06T02:25:15.153Z,16
2023-03-06T02:26:32.557Z,17
2023-03-06T02:27:42.424Z,18
2023-03-06T02:28:50.115Z,18
2023-03-06T02:29:57.111Z,18
2023-03-06T02:31:04.096Z,19
2023-03-06T02:32:13.819Z,18
2023-03-06T02:33:24.417Z,19
2023-03-06T02:34:34.564Z,19
2023-03-06T02:35:41.526Z,19
2023-03-06T02:36:53.514Z,18
2023-03-06T02:38:05.574Z,18
2023-03-06T02:39:13.855Z,18
2023-03-06T02:40:25.794Z,18
2023-03-06T02:41:34.762Z,17
2023-03-06T02:42:42.678Z,18
2023-03-06T02:43:52.683Z,17
2023-03-06T02:45:00.183Z,16
2023-03-06T02:46:10.184Z,15
2023-03-06T02:47:17.052Z,16
2023-03-06T02:48:24.036Z,15
2023-03-06T02:49:31.050Z,16
2023-03-06T02:50:44.155Z,16
2023-03-06T02:51:51.399Z,16
2023-03-06T02:52:59.601Z,17
2023-03-06T02:54:06.531Z,16
2023-03-06T02:55:13.539Z,17
2023-03-06T02:56:20.572Z,17
2023-03-06T02:57:28.402Z,17
2023-03-06T02:58:40.102Z,17
2023-03-06T02:59:47.413Z,18
2023-03-06T03:00:57.485Z,17
2023-03-06T03:02:04.478Z,17
2023-03-06T03:03:12.083Z,17
2023-03-06T03:04:19.533Z,17
2023-03-06T03:05:27.421Z,16
2023-03-06T03:06:38.515Z,18
2023-03-06T03:07:45.454Z,18
2023-03-06T03:08:52.556Z,18
2023-03-06T03:09:59.514Z,18
2023-03-06T03:11:07.241Z,18
2023-03-06T03:12:15.229Z,17
2023-03-06T03:13:22.141Z,17
2023-03-06T03:14:36.272Z,18
2023-03-06T03:15:43.335Z,19
2023-03-06T03:16:54.003Z,19
2023-03-06T03:18:01.830Z,18
2023-03-06T03:19:08.904Z,20
2023-03-06T03:20:17.704Z,19
2023-03-06T03:21:24.794Z,19
2023-03-06T03:22:31.781Z,19
2023-03-06T03:23:38.882Z,18
2023-03-06T03:24:51.508Z,20
2023-03-06T03:25:58.616Z,18
2023-03-06T03:27:08.585Z,18
2023-03-06T03:28:15.648Z,20
2023-03-06T03:29:22.571Z,20
2023-03-06T03:30:30.369Z,20
2023-03-06T03:31:37.383Z,20
2023-03-06T03:32:45.230Z,19
2023-03-06T03:33:55.266Z,22
2023-03-06T03:35:03.343Z,26
2023-03-06T03:36:11.093Z,23
2023-03-06T03:37:18.935Z,24
2023-03-06T03:38:27.108Z,22
2023-03-06T03:39:34.271Z,22
2023-03-06T03:40:46.230Z,26
2023-03-06T03:41:53.196Z,26
2023-03-06T03:43:00.282Z,25
2023-03-06T03:44:07.488Z,25
2023-03-06T03:45:14.572Z,24
2023-03-06T03:46:23.226Z,23
2023-03-06T03:47:30.325Z,23
2023-03-06T03:48:37.529Z,22
2023-03-06T03:49:47.413Z,23
2023-03-06T03:50:55.023Z,23
2023-03-06T03:52:10.796Z,23
2023-03-06T03:53:17.728Z,23
2023-03-06T03:54:24.652Z,24
2023-03-06T03:55:32.023Z,23
2023-03-06T03:56:38.923Z,21
2023-03-06T03:57:46.956Z,23
2023-03-06T03:58:54.006Z,22
2023-03-06T04:00:06.336Z,22
2023-03-06T04:01:14.989Z,20
2023-03-06T04:02:22.118Z,21
2023-03-06T04:03:31.054Z,21
2023-03-06T04:04:42.930Z,21
2023-03-06T04:05:49.868Z,20
2023-03-06T04:07:01.806Z,21
2023-03-06T04:08:08.807Z,22
2023-03-06T04:09:16.011Z,20
2023-03-06T04:10:23.083Z,20
2023-03-06T04:11:34.390Z,22
2023-03-06T04:12:44.702Z,21
2023-03-06T04:13:51.779Z,20
2023-03-06T04:14:59.661Z,21
2023-03-06T04:16:07.632Z,20
2023-03-06T04:17:19.448Z,21
2023-03-06T04:18:26.487Z,20
2023-03-06T04:19:34.633Z,21
2023-03-06T04:20:46.173Z,22
2023-03-06T04:21:53.468Z,21
2023-03-06T04:23:03.113Z,20
2023-03-06T04:24:10.171Z,21
2023-03-06T04:25:17.892Z,21
2023-03-06T04:26:24.838Z,21
2023-03-06T04:27:31.865Z,23
2023-03-06T04:28:43.038Z,23
2023-03-06T04:29:51.190Z,22
2023-03-06T04:30:58.233Z,22
2023-03-06T04:32:07.816Z,23
2023-03-06T04:33:14.730Z,24
2023-03-06T04:34:22.601Z,23
2023-03-06T04:35:30.638Z,25
2023-03-06T04:36:37.618Z,24
2023-03-06T04:37:44.616Z,23
2023-03-06T04:38:51.595Z,21
2023-03-06T04:39:58.557Z,22
2023-03-06T04:41:05.686Z,20
2023-03-06T04:42:13.479Z,20
2023-03-06T04:43:20.460Z,20
2023-03-06T04:44:29.635Z,20
2023-03-06T04:45:38.699Z,19
2023-03-06T04:46:45.624Z,16
2023-03-06T04:47:54.705Z,17
2023-03-06T04:49:02.226Z,17
2023-03-06T04:50:10.019Z,16
2023-03-06T04:51:18.040Z,15
2023-03-06T04:52:27.079Z,14
2023-03-06T04:53:34.005Z,15
2023-03-06T04:54:42.016Z,15
2023-03-06T04:55:49.153Z,15
2023-03-06T04:56:57.986Z,15
2023-03-06T04:58:05.731Z,14
2023-03-06T04:59:16.903Z,14
2023-03-06T05:00:23.820Z,15
2023-03-06T05:01:36.155Z,14
2023-03-06T05:02:45.548Z,15
2023-03-06T05:03:55.829Z,14
2023-03-06T05:05:03.746Z,14
2023-03-06T05:06:10.731Z,14
2023-03-06T05:07:17.669Z,14
2023-03-06T05:08:29.420Z,14
2023-03-06T05:09:39.269Z,14
2023-03-06T05:10:45.972Z,13
2023-03-06T05:11:58.005Z,13
2023-03-06T05:13:06.461Z,14
2023-03-06T05:14:13.567Z,13
2023-03-06T05:15:20.804Z,13
2023-03-06T05:16:27.818Z,13
2023-03-06T05:17:36.220Z,13
2023-03-06T05:18:43.170Z,14
2023-03-06T05:19:50.176Z,13
2023-03-06T05:20:57.207Z,14
2023-03-06T05:22:04.766Z,13
2023-03-06T05:23:11.752Z,13
2023-03-06T05:24:18.744Z,14
2023-03-06T05:25:25.786Z,12
2023-03-06T05:26:33.986Z,12
2023-03-06T05:27:44.804Z,14
2023-03-06T05:28:51.809Z,12
2023-03-06T05:29:59.009Z,12
2023-03-06T05:31:06.079Z,12
2023-03-06T05:32:13.180Z,13
2023-03-06T05:33:20.062Z,12
2023-03-06T05:34:27.246Z,12
2023-03-06T05:35:34.296Z,12
2023-03-06T05:36:41.333Z,11
2023-03-06T05:37:49.883Z,11
2023-03-06T05:38:58.498Z,11
2023-03-06T05:40:05.442Z,11
2023-03-06T05:41:12.730Z,11
2023-03-06T05:42:21.718Z,9
2023-03-06T05:43:28.851Z,11
2023-03-06T05:44:39.331Z,10
2023-03-06T05:45:46.287Z,10
2023-03-06T05:46:58.196Z,10
2023-03-06T05:48:05.654Z,10
2023-03-06T05:49:15.303Z,10
2023-03-06T05:50:25.424Z,11
2023-03-06T05:51:32.503Z,11
2023-03-06T05:52:41.203Z,10
2023-03-06T05:53:51.160Z,10
2023-03-06T05:54:58.175Z,11
2023-03-06T05:56:05.115Z,12
2023-03-06T05:57:15.582Z,12
2023-03-06T05:58:22.643Z,10
2023-03-06T05:59:30.394Z,11
2023-03-06T06:00:38.145Z,11
2023-03-06T06:01:45.037Z,10
2023-03-06T06:02:52.731Z,11
2023-03-06T06:03:59.653Z,11
2023-03-06T06:05:07.498Z,10
2023-03-06T06:06:14.532Z,11
2023-03-06T06:07:21.607Z,10
2023-03-06T06:08:30.981Z,9
2023-03-06T06:09:38.048Z,9
2023-03-06T06:10:44.871Z,10
2023-03-06T06:11:51.713Z,10
2023-03-06T06:13:02.013Z,10
2023-03-06T06:14:08.995Z,10
2023-03-06T06:15:15.802Z,10
2023-03-06T06:16:22.803Z,10
2023-03-06T06:17:29.691Z,10
2023-03-06T06:18:37.678Z,9
2023-03-06T06:19:44.127Z,10
2023-03-06T06:20:50.920Z,9
2023-03-06T06:21:57.772Z,9
2023-03-06T06:23:06.200Z,9
2023-03-06T06:24:14.740Z,10
2023-03-06T06:25:21.674Z,9
2023-03-06T06:26:29.555Z,9
2023-03-06T06:27:36.346Z,9
2023-03-06T06:28:43.823Z,10
2023-03-06T06:29:50.663Z,9
2023-03-06T06:30:57.482Z,9
2023-03-06T06:32:04.405Z,9
2023-03-06T06:33:12.067Z,9
2023-03-06T06:34:18.940Z,9
2023-03-06T06:35:25.871Z,9
2023-03-06T06:36:32.631Z,8
2023-03-06T06:37:39.520Z,9
2023-03-06T06:38:46.514Z,9
2023-03-06T06:39:53.251Z,9
2023-03-06T06:41:30.990Z,10
2023-03-06T06:42:28.506Z,9
2023-03-06T06:43:13.848Z,9
2023-03-06T06:44:20.715Z,10
2023-03-06T06:45:25.772Z,10
2023-03-06T06:47:18.105Z,9
2023-03-06T06:47:40.386Z,10
2023-03-06T06:48:47.249Z,10
2023-03-06T06:49:54.105Z,10
2023-03-06T06:51:00.940Z,10
2023-03-06T06:52:07.964Z,10
2023-03-06T06:53:14.768Z,10
2023-03-06T06:54:21.751Z,10
2023-03-06T06:55:28.592Z,10
2023-03-06T06:56:35.425Z,9
2023-03-06T06:57:42.257Z,9
2023-03-06T06:58:49.839Z,10
2023-03-06T06:59:59.404Z,10
2023-03-06T07:01:06.298Z,11
2023-03-06T07:02:13.181Z,10
2023-03-06T07:03:21.053Z,11
2023-03-06T07:04:27.898Z,11
2023-03-06T07:05:34.684Z,11
2023-03-06T07:06:41.481Z,10
2023-03-06T07:07:48.385Z,11
2023-03-06T07:08:56.625Z,11
2023-03-06T07:10:02.112Z,10
2023-03-06T07:11:09.021Z,9
2023-03-06T07:12:15.833Z,10
2023-03-06T07:13:22.712Z,10
2023-03-06T07:14:29.696Z,10
2023-03-06T07:15:36.704Z,10
2023-03-06T07:16:44.292Z,10
2023-03-06T07:17:51.273Z,9
2023-03-06T07:18:58.111Z,9
2023-03-06T07:20:04.953Z,8
2023-03-06T07:21:12.226Z,9
2023-03-06T07:22:19.070Z,10
2023-03-06T07:23:25.833Z,9
2023-03-06T07:24:32.684Z,9
2023-03-06T07:25:39.596Z,9
2023-03-06T07:26:46.456Z,10
2023-03-06T07:27:54.337Z,9
2023-03-06T07:29:00.148Z,9
2023-03-06T07:30:06.998Z,10
2023-03-06T07:31:14.198Z,10
2023-03-06T07:32:21.365Z,10
2023-03-06T07:33:28.118Z,11
2023-03-06T07:34:35.014Z,10
2023-03-06T07:35:43.066Z,10
2023-03-06T07:36:49.897Z,10
2023-03-06T07:37:56.828Z,10
2023-03-06T07:39:03.691Z,10
2023-03-06T07:40:10.606Z,10
2023-03-06T07:41:17.485Z,10
2023-03-06T07:42:24.319Z,9
2023-03-06T07:43:31.222Z,9
2023-03-06T07:44:38.117Z,10
2023-03-06T07:45:44.916Z,9
2023-03-06T07:46:51.821Z,10
2023-03-06T07:47:58.636Z,9
2023-03-06T07:49:05.469Z,10
2023-03-06T07:50:12.313Z,10
2023-03-06T07:51:19.355Z,10
2023-03-06T07:52:26.240Z,10
2023-03-06T07:53:33.155Z,10
2023-03-06T07:54:40.830Z,10
2023-03-06T07:55:47.692Z,10
2023-03-06T07:56:54.683Z,10
2023-03-06T07:58:01.400Z,9
2023-03-06T07:59:08.263Z,10
2023-03-06T08:00:19.785Z,10
2023-03-06T08:01:26.943Z,10
2023-03-06T08:02:33.880Z,10
2023-03-06T08:03:40.757Z,11
2023-03-06T08:04:47.516Z,10
2023-03-06T08:05:54.384Z,11
2023-03-06T08:07:08.939Z,9
2023-03-06T08:08:15.819Z,10
2023-03-06T08:09:22.653Z,10
2023-03-06T08:10:30.324Z,9
2023-03-06T08:11:37.231Z,9
2023-03-06T08:12:44.862Z,9
2023-03-06T08:13:51.718Z,8
2023-03-06T08:14:58.566Z,8
2023-03-06T08:16:05.401Z,8
2023-03-06T08:17:12.423Z,9
2023-03-06T08:18:19.242Z,9
2023-03-06T08:19:26.062Z,9
2023-03-06T08:20:33.836Z,9
2023-03-06T08:21:40.656Z,8
2023-03-06T08:22:47.601Z,9
2023-03-06T08:23:54.384Z,10
2023-03-06T08:25:01.265Z,9
2023-03-06T08:26:08.329Z,9
2023-03-06T08:27:15.145Z,8
2023-03-06T08:28:22.071Z,10
2023-03-06T08:29:31.009Z,10
2023-03-06T08:30:36.521Z,9
2023-03-06T08:31:43.408Z,10
2023-03-06T08:32:50.170Z,10
2023-03-06T08:33:57.235Z,11
2023-03-06T08:35:04.094Z,10
2023-03-06T08:36:11.084Z,11
2023-03-06T08:37:17.870Z,11
2023-03-06T08:38:24.634Z,14
2023-03-06T08:39:31.637Z,13
2023-03-06T08:40:39.325Z,15
2023-03-06T08:41:46.236Z,10
2023-03-06T08:42:53.065Z,12
2023-03-06T08:44:00.745Z,12
2023-03-06T08:45:07.633Z,11
2023-03-06T08:46:14.551Z,11
2023-03-06T08:47:22.263Z,10
2023-03-06T08:48:29.951Z,10
2023-03-06T08:49:36.742Z,10
2023-03-06T08:50:44.615Z,10
2023-03-06T08:51:51.503Z,9
2023-03-06T08:52:58.403Z,9
2023-03-06T08:54:05.254Z,10
2023-03-06T08:55:14.781Z,9
2023-03-06T08:56:19.643Z,10
2023-03-06T08:57:29.106Z,10
2023-03-06T08:58:36.115Z,9
2023-03-06T08:59:43.030Z,8
2023-03-06T09:00:49.863Z,9
2023-03-06T09:01:57.665Z,8
2023-03-06T09:03:04.311Z,9
2023-03-06T09:04:11.109Z,9
2023-03-06T09:05:17.979Z,10
2023-03-06T09:06:25.722Z,8
2023-03-06T09:07:32.698Z,8
2023-03-06T09:08:39.497Z,8
2023-03-06T09:09:46.326Z,8
2023-03-06T09:10:53.202Z,7
2023-03-06T09:12:00.932Z,8
2023-03-06T09:13:07.758Z,9
2023-03-06T09:14:14.554Z,8
2023-03-06T09:15:21.496Z,8
2023-03-06T09:16:28.355Z,8
2023-03-06T09:17:35.233Z,8
2023-03-06T09:18:42.016Z,7
2023-03-06T09:19:55.303Z,8
2023-03-06T09:21:02.143Z,9
2023-03-06T09:22:08.952Z,8
2023-03-06T09:23:15.884Z,8
2023-03-06T09:24:22.666Z,8
2023-03-06T09:25:29.641Z,9
2023-03-06T09:26:45.323Z,8
2023-03-06T09:27:43.405Z,9
2023-03-06T09:28:50.179Z,9
2023-03-06T09:29:57.028Z,9
2023-03-06T09:31:04.081Z,9
2023-03-06T09:32:13.823Z,8
2023-03-06T09:33:20.697Z,8
2023-03-06T09:34:28.450Z,9
2023-03-06T09:35:35.254Z,8
2023-03-06T09:36:56.378Z,8
2023-03-06T09:37:54.204Z,9
2023-03-06T09:39:01.003Z,9
2023-03-06T09:40:07.751Z,7
2023-03-06T09:41:20.618Z,7
2023-03-06T09:42:37.543Z,8
2023-03-06T09:43:44.459Z,7
2023-03-06T09:44:51.308Z,6
2023-03-06T09:45:58.200Z,7
2023-03-06T09:47:10.961Z,7
2023-03-06T09:48:25.750Z,8
2023-03-06T09:49:37.600Z,7
2023-03-06T09:50:52.379Z,9
2023-03-06T09:51:59.259Z,8
2023-03-06T09:53:10.252Z,9
2023-03-06T09:54:25.243Z,9
2023-03-06T09:55:32.934Z,9
2023-03-06T09:56:39.812Z,8
2023-03-06T09:57:46.835Z,8
2023-03-06T09:58:58.695Z,8
2023-03-06T10:00:08.111Z,8
2023-03-06T10:01:20.825Z,8
2023-03-06T10:02:27.815Z,7
2023-03-06T10:03:39.529Z,8
2023-03-06T10:04:51.502Z,7
2023-03-06T10:06:02.681Z,7
2023-03-06T10:07:08.042Z,7
2023-03-06T10:08:22.624Z,6
2023-03-06T10:09:34.516Z,6
2023-03-06T10:10:47.133Z,6
2023-03-06T10:11:53.985Z,6
2023-03-06T10:13:03.710Z,6
2023-03-06T10:14:15.575Z,7
2023-03-06T10:15:32.680Z,6
2023-03-06T10:16:39.374Z,7
2023-03-06T10:17:46.234Z,6
2023-03-06T10:18:53.040Z,7
2023-03-06T10:19:59.851Z,8
2023-03-06T10:21:18.952Z,9
2023-03-06T10:22:26.828Z,8
2023-03-06T10:23:33.624Z,8
2023-03-06T10:24:45.525Z,7
2023-03-06T10:25:57.571Z,7
2023-03-06T10:27:04.449Z,7
2023-03-06T10:28:19.004Z,7
2023-03-06T10:29:25.861Z,7
2023-03-06T10:30:40.393Z,7
2023-03-06T10:31:55.278Z,7
2023-03-06T10:33:07.151Z,7
2023-03-06T10:34:24.025Z,7
2023-03-06T10:35:33.577Z,7
2023-03-06T10:36:50.478Z,8
2023-03-06T10:37:57.247Z,8
2023-03-06T10:39:12.135Z,8
2023-03-06T10:40:18.924Z,7
2023-03-06T10:41:25.719Z,6
2023-03-06T10:42:32.477Z,6
2023-03-06T10:43:39.306Z,6
2023-03-06T10:44:46.278Z,6
2023-03-06T10:45:54.284Z,6
2023-03-06T10:47:01.080Z,5
2023-03-06T10:48:18.060Z,6
2023-03-06T10:49:25.004Z,6
2023-03-06T10:50:34.813Z,7
2023-03-06T10:51:41.652Z,6
2023-03-06T10:52:53.628Z,5
2023-03-06T10:54:05.968Z,5
2023-03-06T10:55:15.646Z,5
2023-03-06T10:56:28.756Z,6
2023-03-06T10:57:38.302Z,5
2023-03-06T10:58:45.074Z,4
2023-03-06T10:59:51.891Z,5
2023-03-06T11:01:03.790Z,5
2023-03-06T11:02:15.754Z,9
2023-03-06T11:03:28.419Z,5
2023-03-06T11:04:35.311Z,5
2023-03-06T11:05:41.968Z,5
2023-03-06T11:06:56.573Z,5
2023-03-06T11:08:08.608Z,8
2023-03-06T11:09:15.444Z,9
2023-03-06T11:10:25.116Z,8
2023-03-06T11:11:37.651Z,7
2023-03-06T11:12:38.796Z,9
2023-03-06T11:13:45.585Z,5
2023-03-06T11:14:52.430Z,4
2023-03-06T11:16:09.496Z,3
2023-03-06T11:17:26.409Z,3
2023-03-06T11:18:33.281Z,3
2023-03-06T11:19:40.071Z,3
2023-03-06T11:20:52.967Z,3
2023-03-06T11:21:53.726Z,3
2023-03-06T11:23:05.577Z,4
2023-03-06T11:24:22.611Z,5
2023-03-06T11:25:29.446Z,3
2023-03-06T11:26:36.354Z,4
2023-03-06T11:27:51.315Z,4
2023-03-06T11:29:06.110Z,3
2023-03-06T11:30:18.747Z,4
2023-03-06T11:31:25.603Z,3
2023-03-06T11:32:32.490Z,5
2023-03-06T11:33:39.367Z,4
2023-03-06T11:34:51.245Z,5
2023-03-06T11:36:00.707Z,4
2023-03-06T11:37:07.485Z,4
2023-03-06T11:38:14.318Z,4
2023-03-06T11:39:23.953Z,4
2023-03-06T11:40:35.814Z,4
2023-03-06T11:41:52.697Z,3
2023-03-06T11:43:02.319Z,4
2023-03-06T11:44:09.236Z,4
2023-03-06T11:45:21.608Z,4
2023-03-06T11:46:32.738Z,4
2023-03-06T11:47:42.495Z,4
2023-03-06T11:48:49.544Z,4
2023-03-06T11:50:01.303Z,4
2023-03-06T11:51:11.085Z,5
2023-03-06T11:52:18.053Z,4
2023-03-06T11:53:24.845Z,5
2023-03-06T11:54:36.816Z,4
2023-03-06T11:55:43.666Z,4
2023-03-06T11:56:55.614Z,4
2023-03-06T11:58:05.314Z,4
2023-03-06T11:59:17.219Z,4
2023-03-06T12:00:34.140Z,5
2023-03-06T12:01:48.918Z,4
2023-03-06T12:03:05.932Z,5
2023-03-06T12:04:22.933Z,6
2023-03-06T12:05:34.778Z,5
2023-03-06T12:06:44.385Z,5
2023-03-06T12:07:54.303Z,7
2023-03-06T12:09:08.969Z,7
2023-03-06T12:10:16.701Z,5
2023-03-06T12:11:23.497Z,5
2023-03-06T12:12:30.381Z,6
2023-03-06T12:13:42.309Z,6
2023-03-06T12:15:00.512Z,7
2023-03-06T12:16:12.224Z,6
2023-03-06T12:17:27.080Z,6
2023-03-06T12:18:44.227Z,6
2023-03-06T12:19:54.857Z,6
2023-03-06T12:21:11.697Z,5
2023-03-06T12:22:18.542Z,4
2023-03-06T12:23:36.331Z,4
2023-03-06T12:24:53.064Z,4
2023-03-06T12:26:10.004Z,5
2023-03-06T12:27:21.856Z,6
2023-03-06T12:28:33.747Z,6
2023-03-06T12:29:50.725Z,6
2023-03-06T12:31:07.697Z,5
2023-03-06T12:32:14.778Z,6
2023-03-06T12:33:27.114Z,5
2023-03-06T12:34:39.844Z,5
2023-03-06T12:35:54.516Z,5
2023-03-06T12:37:06.378Z,6
2023-03-06T12:38:21.370Z,6
2023-03-06T12:39:38.435Z,6
2023-03-06T12:40:51.125Z,6
2023-03-06T12:42:08.869Z,6
2023-03-06T12:43:22.718Z,6
2023-03-06T12:44:39.711Z,6
2023-03-06T12:45:51.727Z,6
2023-03-06T12:47:01.338Z,6
2023-03-06T12:48:08.096Z,7
2023-03-06T12:49:31.745Z,6
2023-03-06T12:50:32.669Z,6
2023-03-06T12:51:39.872Z,6
2023-03-06T12:52:46.736Z,7
2023-03-06T12:53:53.532Z,7
2023-03-06T12:55:00.397Z,6
2023-03-06T12:56:07.541Z,6
2023-03-06T12:57:15.206Z,6
2023-03-06T12:58:22.210Z,6
2023-03-06T12:59:32.040Z,6
2023-03-06T13:00:41.657Z,6
2023-03-06T13:01:58.595Z,6
2023-03-06T13:03:08.966Z,6
2023-03-06T13:04:20.883Z,7
2023-03-06T13:05:30.415Z,7
2023-03-06T13:06:50.556Z,7
2023-03-06T13:08:02.063Z,7
2023-03-06T13:09:18.965Z,6
2023-03-06T13:10:30.897Z,6
2023-03-06T13:11:37.693Z,6
2023-03-06T13:12:50.367Z,7
2023-03-06T13:14:02.909Z,9
2023-03-06T13:15:19.812Z,11
2023-03-06T13:16:36.816Z,14
2023-03-06T13:17:43.753Z,8
2023-03-06T13:18:50.596Z,5
2023-03-06T13:20:07.625Z,6
2023-03-06T13:21:17.197Z,6
2023-03-06T13:22:34.195Z,5
2023-03-06T13:23:43.680Z,7
2023-03-06T13:24:54.998Z,6
2023-03-06T13:26:09.150Z,5
2023-03-06T13:27:26.222Z,5
2023-03-06T13:28:43.195Z,5
2023-03-06T13:29:52.876Z,5
2023-03-06T13:31:15.329Z,5
2023-03-06T13:32:17.274Z,6
2023-03-06T13:33:25.131Z,6
2023-03-06T13:34:37.372Z,5
2023-03-06T13:35:45.154Z,5
2023-03-06T13:36:57.037Z,6
2023-03-06T13:38:14.423Z,6
2023-03-06T13:39:31.324Z,5
2023-03-06T13:40:38.320Z,7
2023-03-06T13:41:45.184Z,6
2023-03-06T13:42:57.097Z,6
2023-03-06T13:44:07.234Z,5
2023-03-06T13:45:24.154Z,5
2023-03-06T13:46:37.100Z,5
2023-03-06T13:48:06.741Z,6
2023-03-06T13:48:51.912Z,6
2023-03-06T13:50:07.784Z,6
2023-03-06T13:51:19.666Z,6
2023-03-06T13:52:26.521Z,7
2023-03-06T13:53:41.252Z,7
2023-03-06T13:54:58.187Z,7
2023-03-06T13:56:15.098Z,8
2023-03-06T13:57:29.698Z,7
2023-03-06T13:58:41.639Z,6
2023-03-06T14:00:08.504Z,16
2023-03-06T14:01:21.531Z,14
2023-03-06T14:02:34.201Z,8
2023-03-06T14:03:49.123Z,7
2023-03-06T14:05:06.071Z,7
2023-03-06T14:06:15.615Z,18
2023-03-06T14:07:33.397Z,7
2023-03-06T14:08:42.072Z,9
2023-03-06T14:09:48.981Z,21
2023-03-06T14:11:05.926Z,9
2023-03-06T14:12:17.749Z,9
2023-03-06T14:13:32.282Z,9
2023-03-06T14:14:39.939Z,12
2023-03-06T14:15:46.857Z,24
2023-03-06T14:16:53.734Z,11
2023-03-06T14:18:00.538Z,13
2023-03-06T14:19:15.354Z,24
2023-03-06T14:20:22.187Z,12
2023-03-06T14:21:29.051Z,9
2023-03-06T14:22:35.919Z,8
2023-03-06T14:23:43.656Z,8
2023-03-06T14:24:50.486Z,14
2023-03-06T14:26:00.467Z,8
2023-03-06T14:27:17.345Z,8
2023-03-06T14:28:24.284Z,10
2023-03-06T14:29:31.140Z,8
2023-03-06T14:30:38.114Z,9
2023-03-06T14:31:44.912Z,7
2023-03-06T14:32:51.770Z,8
2023-03-06T14:33:58.610Z,9
2023-03-06T14:35:05.478Z,9
2023-03-06T14:36:17.360Z,10
2023-03-06T14:37:24.294Z,9
2023-03-06T14:38:31.074Z,8
2023-03-06T14:39:40.512Z,9
2023-03-06T14:40:47.559Z,8
2023-03-06T14:41:54.473Z,9
2023-03-06T14:43:09.275Z,10
2023-03-06T14:44:21.362Z,8
2023-03-06T14:45:29.019Z,7
2023-03-06T14:46:35.976Z,8
2023-03-06T14:47:42.727Z,8
2023-03-06T14:48:52.668Z,7
2023-03-06T14:50:00.469Z,7
2023-03-06T14:51:17.582Z,8
2023-03-06T14:52:24.373Z,8
2023-03-06T14:53:31.217Z,10
2023-03-06T14:54:38.921Z,7
2023-03-06T14:55:45.741Z,7
2023-03-06T14:57:00.628Z,6
2023-03-06T14:58:10.382Z,6
2023-03-06T14:59:18.115Z,7
2023-03-06T15:00:24.959Z,8
2023-03-06T15:01:36.468Z,7
2023-03-06T15:02:43.460Z,6
2023-03-06T15:03:50.373Z,6
2023-03-06T15:04:58.184Z,7
2023-03-06T15:06:05.033Z,6
2023-03-06T15:07:12.861Z,7
2023-03-06T15:08:19.757Z,7
2023-03-06T15:09:26.563Z,8
2023-03-06T15:10:35.139Z,10
2023-03-06T15:11:42.037Z,9
2023-03-06T15:12:54.112Z,9
2023-03-06T15:14:11.964Z,8
2023-03-06T15:15:21.569Z,8
2023-03-06T15:16:30.499Z,9
2023-03-06T15:17:36.917Z,9
2023-03-06T15:18:46.864Z,10
2023-03-06T15:19:58.740Z,9
2023-03-06T15:21:05.563Z,11
2023-03-06T15:22:17.379Z,10
2023-03-06T15:23:34.487Z,9
2023-03-06T15:24:41.310Z,8
2023-03-06T15:25:48.248Z,8
2023-03-06T15:26:55.155Z,8
2023-03-06T15:28:04.782Z,8
2023-03-06T15:29:21.963Z,9
2023-03-06T15:30:29.645Z,9
2023-03-06T15:31:36.536Z,9
2023-03-06T15:32:43.345Z,11
2023-03-06T15:33:50.239Z,10
2023-03-06T15:35:02.233Z,10
2023-03-06T15:36:19.290Z,11
2023-03-06T15:37:27.002Z,11
2023-03-06T15:38:33.816Z,11
2023-03-06T15:39:40.651Z,11
2023-03-06T15:40:48.380Z,13
2023-03-06T15:41:59.022Z,13
2023-03-06T15:43:16.175Z,11
2023-03-06T15:44:22.912Z,13
2023-03-06T15:45:30.565Z,12
2023-03-06T15:46:38.246Z,12
2023-03-06T15:47:45.120Z,13
2023-03-06T15:48:52.854Z,13
2023-03-06T15:50:04.036Z,13
2023-03-06T15:51:18.745Z,13
2023-03-06T15:52:25.481Z,13
2023-03-06T15:53:32.367Z,14
2023-03-06T15:54:39.219Z,15
2023-03-06T15:55:46.103Z,15
2023-03-06T15:56:53.013Z,13
2023-03-06T15:58:00.707Z,14
2023-03-06T15:59:08.155Z,15
2023-03-06T16:00:27.191Z,15
2023-03-06T16:01:27.945Z,15
2023-03-06T16:02:34.839Z,14
2023-03-06T16:03:42.530Z,15
2023-03-06T16:04:49.424Z,13
2023-03-06T16:05:56.271Z,14
2023-03-06T16:07:03.377Z,13
2023-03-06T16:08:10.275Z,14
2023-03-06T16:09:17.234Z,13
2023-03-06T16:10:24.085Z,12
2023-03-06T16:11:38.629Z,14
2023-03-06T16:12:38.877Z,14
2023-03-06T16:13:45.798Z,14
2023-03-06T16:14:52.682Z,13
2023-03-06T16:16:00.499Z,13
2023-03-06T16:17:07.573Z,13
2023-03-06T16:18:14.759Z,12
2023-03-06T16:19:27.885Z,12
2023-03-06T16:20:28.544Z,13
2023-03-06T16:21:35.503Z,13
2023-03-06T16:22:42.332Z,14
2023-03-06T16:23:49.949Z,15
2023-03-06T16:24:56.811Z,15
2023-03-06T16:26:04.548Z,15
2023-03-06T16:27:19.513Z,16
2023-03-06T16:28:27.310Z,16
2023-03-06T16:29:34.154Z,17
2023-03-06T16:30:41.041Z,18
2023-03-06T16:31:48.675Z,18
2023-03-06T16:32:56.348Z,18
2023-03-06T16:34:04.168Z,18
2023-03-06T16:35:11.111Z,20
2023-03-06T16:36:17.968Z,19
2023-03-06T16:37:26.071Z,20